This is the latest recevied weather packets stored in our database for station/object OK1JRA-6. If no packets are shown the sender has not sent any weather packets the latest 1 day(s).
| Time | Temp. | Humidity | Pressure | Rain* | Wind** | Luminosity | Snow |
|---|---|---|---|---|---|---|---|
| 1778103659 | 12.22° C | 83% | 1008.2 hPa | 0 mm | - | - | - |
| 1778102434 | 12.78° C | 83% | 1008.1 hPa | 0 mm | - | - | - |
| 1778100597 | 12.78° C | 81% | 1007.3 hPa | 0.76 mm | - | - | - |
| 1778098454 | 13.33° C | 79% | 1007.1 hPa | 5.08 mm | - | - | - |
| 1778096290 | 13.89° C | 76% | 1007.4 hPa | 3.56 mm | - | - | - |
| 1778095318 | 15° C | 71% | 1007.4 hPa | 2.29 mm | - | - | - |
| 1778094639 | 15.56° C | 64% | 1006.8 hPa | 0 mm | - | - | - |
| 1778092802 | 16.11° C | 57% | 1005.8 hPa | 0 mm | - | - | - |
| 1778089434 | 18.89° C | 51% | 1004.9 hPa | 0 mm | - | - | - |
| 1778089128 | 18.89° C | 51% | 1004.9 hPa | 0 mm | - | - | - |
| 1778088210 | 20° C | 49% | 1004.7 hPa | 0 mm | - | - | - |
| 1778087291 | 20.56° C | 48% | 1004.7 hPa | 0 mm | - | - | - |
| 1778086985 | 21.11° C | 48% | 1004.7 hPa | 0 mm | - | - | - |
| 1778085454 | 21.67° C | 46% | 1004.6 hPa | 0 mm | - | - | - |
| 1778085148 | 21.67° C | 46% | 1004.6 hPa | 0 mm | - | - | - |
| 1778083617 | 22.78° C | 43% | 1004.8 hPa | 0 mm | - | - | - |
| 1778081780 | 21.11° C | 42% | 1004.8 hPa | 0 mm | - | - | - |
| 1778081168 | 22.22° C | 41% | 1004.8 hPa | 0 mm | - | - | - |
| 1778079943 | 23.33° C | 40% | 1005.1 hPa | 0 mm | - | - | - |
| 1778079637 | 22.78° C | 39% | 1005.1 hPa | 0 mm | - | - | - |
| 1778077800 | 25.56° C | 33% | 1005.3 hPa | 0 mm | - | - | - |
| 1778075963 | 31.11° C | 24% | 1005.5 hPa | 0 mm | - | - | - |
| 1778075657 | 33.33° C | 22% | 1005.6 hPa | 0 mm | - | - | - |
| 1778074432 | 33.33° C | 22% | 1005.8 hPa | 0 mm | - | - | - |
| 1778074126 | 33.89° C | 21% | 1005.8 hPa | 0 mm | - | - | - |
* Rain latest hour (hover to see other rain measurements)
** Current wind speed in m/s (hover to see current wind gust speed)